Time;durP1;ratioP1;P1;durP2;ratioP2;P2;SDS_P1;SDS_P2;PMS_P1;PMS_P2;Temp;Humidity;BMP_temperature;BMP_pressure;BME280_temperature;BME280_humidity;BME280_pressure;Samples;Min_cycle;Max_cycle;Signal;HPM_P1;HPM_P2
2023/01/23 00:01:48;;;;;;;47.65;22.05;;;6.80;90.70;;;;;;7389788;19;20053;-76
2023/01/23 00:04:17;;;;;;;58.65;23.58;;;6.80;90.70;;;;;;7369368;19;20046;-76
2023/01/23 00:06:47;;;;;;;53.25;23.55;;;6.80;90.60;;;;;;7370548;19;20017;-77
2023/01/23 00:09:16;;;;;;;50.67;23.13;;;6.70;90.60;;;;;;7370367;19;20022;-76
2023/01/23 00:11:45;;;;;;;51.60;22.40;;;6.80;90.60;;;;;;7370126;19;20438;-74
2023/01/23 00:14:17;;;;;;;52.00;23.30;;;6.80;90.60;;;;;;7368585;19;20014;-76
2023/01/23 00:16:45;;;;;;;54.75;22.67;;;6.70;90.60;;;;;;7392289;19;20050;-77
2023/01/23 00:19:14;;;;;;;55.42;23.45;;;6.60;90.50;;;;;;7370811;19;20087;-76
2023/01/23 00:21:43;;;;;;;52.78;23.08;;;6.60;90.80;;;;;;7370230;19;20015;-76
2023/01/23 00:24:13;;;;;;;56.55;23.10;;;6.70;90.90;;;;;;7369376;19;20572;-76
2023/01/23 00:26:42;;;;;;;53.90;23.85;;;6.70;90.70;;;;;;7369052;19;20405;-76
2023/01/23 00:29:14;;;;;;;51.00;22.27;;;6.80;90.80;;;;;;7368825;19;20021;-75
2023/01/23 00:31:45;;;;;;;58.25;23.63;;;6.80;90.70;;;;;;7389657;19;20379;-76
2023/01/23 00:34:15;;;;;;;;;;;6.80;90.60;;;;;;7370293;19;20327;-76
2023/01/23 00:36:45;;;;;;;51.90;21.17;;;6.80;90.50;;;;;;7368063;19;20238;-76
2023/01/23 00:39:17;;;;;;;55.58;23.35;;;6.70;90.60;;;;;;7369491;19;20028;-76
2023/01/23 00:41:47;;;;;;;60.22;24.45;;;6.60;90.70;;;;;;7368216;19;20025;-76
2023/01/23 00:44:16;;;;;;;55.13;24.42;;;6.40;90.90;;;;;;7368532;19;20015;-77
2023/01/23 00:46:49;;;;;;;53.33;23.13;;;6.50;91.10;;;;;;7386777;19;20114;-76
2023/01/23 00:49:19;;;;;;;60.97;24.50;;;6.50;91.10;;;;;;7363318;19;20015;-77
2023/01/23 00:51:49;;;;;;;60.00;23.38;;;6.60;91.00;;;;;;7366137;19;20015;-77
2023/01/23 00:54:18;;;;;;;55.92;22.10;;;6.60;90.90;;;;;;7366156;19;20025;-77
2023/01/23 00:56:47;;;;;;;65.47;25.10;;;6.50;90.70;;;;;;7367513;19;20039;-75
2023/01/23 00:59:16;;;;;;;54.75;23.75;;;6.60;90.90;;;;;;7367858;19;20461;-75
2023/01/23 01:01:47;;;;;;;63.30;25.05;;;6.60;90.90;;;;;;7388875;19;20014;-75
2023/01/23 01:04:16;;;;;;;;;;;6.60;91.00;;;;;;7367197;19;20019;-75
2023/01/23 01:06:44;;;;;;;58.13;22.85;;;6.70;91.10;;;;;;7362330;19;19934;-75
2023/01/23 01:09:13;;;;;;;54.65;22.58;;;6.70;90.90;;;;;;7359088;19;20541;-75
2023/01/23 01:11:42;;;;;;;54.28;23.25;;;6.60;90.60;;;;;;7360889;19;20714;-76
2023/01/23 01:14:11;;;;;;;59.00;24.27;;;6.60;90.70;;;;;;7359830;19;20014;-75
2023/01/23 01:16:43;;;;;;;62.05;23.77;;;6.60;90.70;;;;;;7381597;19;22890;-75
2023/01/23 01:19:16;;;;;;;49.88;22.90;;;6.60;90.80;;;;;;7364487;19;20021;-75
2023/01/23 01:21:45;;;;;;;56.80;24.17;;;6.60;91.00;;;;;;7369537;19;20052;-76
2023/01/23 01:24:13;;;;;;;60.85;24.65;;;6.70;91.00;;;;;;7367567;19;20018;-75
2023/01/23 01:26:42;;;;;;;54.00;22.65;;;6.70;90.90;;;;;;7368394;19;20024;-75
2023/01/23 01:29:11;;;;;;;54.95;22.70;;;6.60;90.70;;;;;;7368799;19;20018;-74
2023/01/23 01:31:39;;;;;;;62.78;24.80;;;6.60;90.80;;;;;;7393412;19;20019;-75
2023/01/23 01:34:08;;;;;;;58.95;24.13;;;6.60;90.80;;;;;;7367814;19;20021;-75
2023/01/23 01:36:39;;;;;;;56.90;22.67;;;6.70;90.90;;;;;;7368122;19;20025;-75
2023/01/23 01:39:11;;;;;;;54.88;23.80;;;6.70;91.20;;;;;;7365914;19;20015;-75
2023/01/23 01:41:39;;;;;;;57.47;25.13;;;6.70;90.80;;;;;;7371893;19;20500;-75
2023/01/23 01:44:08;;;;;;;61.75;25.83;;;6.70;90.70;;;;;;7368338;19;20014;-75
2023/01/23 01:46:37;;;;;;;58.88;25.40;;;6.70;90.80;;;;;;7386470;19;20021;-75
2023/01/23 01:49:10;;;;;;;59.67;25.52;;;6.80;90.90;;;;;;7366811;19;20029;-76
2023/01/23 01:51:49;;;;;;;57.92;24.67;;;6.70;90.70;;;;;;7371191;19;20025;-75
2023/01/23 01:54:24;;;;;;;60.15;24.33;;;6.70;90.60;;;;;;7370346;19;20019;-75
2023/01/23 01:57:00;;;;;;;55.90;24.02;;;6.80;90.70;;;;;;7367767;19;20121;-75
2023/01/23 01:59:32;;;;;;;58.65;23.10;;;6.80;90.70;;;;;;7365035;19;20349;-75
2023/01/23 02:02:11;;;;;;;54.75;23.05;;;6.80;90.70;;;;;;7391571;19;20020;-75
2023/01/23 02:04:43;;;;;;;58.53;23.02;;;6.70;90.70;;;;;;7366005;19;20029;-75
2023/01/23 02:07:20;;;;;;;53.42;23.88;;;6.60;90.60;;;;;;7369743;19;20014;-75
2023/01/23 02:09:54;;;;;;;58.35;24.70;;;6.70;90.80;;;;;;7368648;19;20017;-76
2023/01/23 02:12:23;;;;;;;53.75;23.65;;;6.70;90.70;;;;;;7369477;19;20446;-75
2023/01/23 02:14:52;;;;;;;58.20;24.15;;;6.70;90.60;;;;;;7368973;19;20021;-76
2023/01/23 02:17:21;;;;;;;57.95;24.17;;;6.60;90.60;;;;;;7368459;19;20014;-75
2023/01/23 02:19:58;;;;;;;57.53;24.23;;;6.70;90.90;;;;;;7389627;19;20019;-77
2023/01/23 02:22:40;;;;;;;57.67;24.52;;;6.70;91.20;;;;;;7373410;19;20014;-76
2023/01/23 02:25:18;;;;;;;57.15;23.27;;;6.70;90.70;;;;;;7368690;19;20043;-75
2023/01/23 02:27:50;;;;;;;53.10;23.50;;;6.80;90.70;;;;;;7372892;19;20078;-75
2023/01/23 02:30:19;;;;;;;57.42;24.45;;;6.70;90.50;;;;;;7371803;19;20288;-75
2023/01/23 02:32:48;;;;;;;56.75;22.90;;;6.80;90.60;;;;;;7373311;19;20015;-75
2023/01/23 02:35:24;;;;;;;55.78;23.75;;;6.70;90.60;;;;;;7374159;19;20022;-74
2023/01/23 02:37:55;;;;;;;58.28;24.02;;;6.70;90.80;;;;;;7393436;19;20050;-75
2023/01/23 02:40:31;;;;;;;;;;;6.70;90.80;;;;;;7371739;19;20014;-75
2023/01/23 02:43:03;;;;;;;58.25;23.02;;;6.80;90.70;;;;;;7369653;19;20274;-75
2023/01/23 02:45:31;;;;;;;62.60;23.95;;;6.70;90.60;;;;;;7372111;19;20450;-75
2023/01/23 02:48:00;;;;;;;52.92;22.83;;;6.70;90.70;;;;;;7372578;19;20070;-75
2023/01/23 02:50:29;;;;;;;54.13;23.48;;;6.70;90.60;;;;;;7372879;19;20017;-74
2023/01/23 02:52:58;;;;;;;65.15;25.02;;;6.70;90.80;;;;;;7392027;19;20011;-75
2023/01/23 02:55:30;;;;;;;55.45;24.88;;;6.70;90.80;;;;;;7371835;19;20017;-75
2023/01/23 03:00:44;;;;;;;58.90;24.02;;;6.70;90.80;;;;;;7370101;19;20018;-75
2023/01/23 03:03:14;;;;;;;56.55;24.13;;;6.50;90.80;;;;;;7369751;19;20018;-75
2023/01/23 03:05:43;;;;;;;57.17;24.85;;;6.60;91.00;;;;;;7370519;19;20018;-75
2023/01/23 03:08:12;;;;;;;63.55;26.48;;;6.70;91.00;;;;;;7372483;19;20089;-75
2023/01/23 03:10:40;;;;;;;59.90;24.27;;;6.70;90.90;;;;;;7392774;19;20028;-75
2023/01/23 03:13:12;;;;;;;52.83;23.70;;;6.80;90.90;;;;;;7371411;19;20438;-75
2023/01/23 03:15:44;;;;;;;65.20;25.95;;;6.80;90.90;;;;;;7370135;19;20039;-75
2023/01/23 03:18:13;;;;;;;64.68;24.35;;;6.70;90.80;;;;;;7370035;19;20014;-76
2023/01/23 03:20:43;;;;;;;61.92;24.70;;;6.70;90.90;;;;;;7371432;19;20462;-76
2023/01/23 03:23:11;;;;;;;58.05;24.45;;;6.70;90.90;;;;;;7368671;19;20018;-75
2023/01/23 03:25:45;;;;;;;58.97;25.55;;;6.70;90.90;;;;;;7391049;19;20029;-76
2023/01/23 03:30:57;;;;;;;59.20;26.10;;;6.60;90.80;;;;;;7369686;19;20015;-75
2023/01/23 03:33:26;;;;;;;57.85;24.52;;;6.70;91.00;;;;;;7369575;19;20010;-75
2023/01/23 03:35:54;;;;;;;59.30;24.50;;;6.60;91.00;;;;;;7368124;19;20029;-75
2023/01/23 03:38:23;;;;;;;54.45;21.90;;;6.50;91.10;;;;;;7369028;19;20089;-75
2023/01/23 03:43:36;;;;;;;60.17;25.15;;;6.40;91.30;;;;;;7369775;19;20024;-75
2023/01/23 03:46:04;;;;;;;;;;;6.40;91.30;;;;;;7370619;19;20027;-75
2023/01/23 03:48:33;;;;;;;51.38;22.40;;;6.30;91.30;;;;;;7370849;19;19938;-75
2023/01/23 03:51:01;;;;;;;60.40;24.20;;;6.30;91.50;;;;;;7369586;19;20519;-75
2023/01/23 03:53:30;;;;;;;56.78;23.33;;;6.40;91.60;;;;;;7368188;19;20017;-75
2023/01/23 03:55:59;;;;;;;57.30;24.40;;;6.50;91.50;;;;;;7389829;19;20040;-75
2023/01/23 03:58:29;;;;;;;59.85;25.13;;;6.50;91.30;;;;;;7369668;19;20051;-76
2023/01/23 04:01:02;;;;;;;61.25;24.73;;;6.60;91.30;;;;;;7368235;19;20557;-75
2023/01/23 04:03:31;;;;;;;56.97;24.90;;;6.60;91.60;;;;;;7369772;19;20046;-75
2023/01/23 04:06:00;;;;;;;54.85;23.33;;;6.60;91.20;;;;;;7368701;19;20014;-75
2023/01/23 04:08:33;;;;;;;58.65;23.50;;;6.60;91.20;;;;;;7369894;19;20089;-75
2023/01/23 04:11:07;;;;;;;58.60;25.17;;;6.60;91.20;;;;;;7389806;19;20042;-76
2023/01/23 04:13:36;;;;;;;59.20;24.05;;;6.50;91.20;;;;;;7368479;19;20029;-77
2023/01/23 04:16:09;;;;;;;58.83;24.55;;;6.60;91.30;;;;;;7368109;19;20486;-76
2023/01/23 04:18:37;;;;;;;61.35;23.85;;;6.60;91.30;;;;;;7367908;19;20014;-76
2023/01/23 04:21:06;;;;;;;59.35;23.83;;;6.30;91.30;;;;;;7369655;19;20013;-76
2023/01/23 04:23:35;;;;;;;56.67;23.02;;;6.40;91.50;;;;;;7369439;19;20132;-77
2023/01/23 04:26:04;;;;;;;55.72;23.38;;;6.40;91.50;;;;;;7386100;19;20017;-76
2023/01/23 04:28:33;;;;;;;59.33;22.98;;;6.50;91.50;;;;;;7390356;19;20015;-76
2023/01/23 04:31:01;;;;;;;59.50;24.65;;;6.50;91.30;;;;;;7366787;19;20025;-77
2023/01/23 04:33:33;;;;;;;57.00;22.52;;;6.60;91.70;;;;;;7367721;19;20126;-76
2023/01/23 04:36:02;;;;;;;;;;;6.40;91.50;;;;;;7369186;19;20015;-76
2023/01/23 04:38:32;;;;;;;56.65;23.05;;;6.40;91.40;;;;;;7369500;19;19915;-76
2023/01/23 04:41:01;;;;;;;56.85;23.15;;;6.50;91.40;;;;;;7389254;19;20453;-77
2023/01/23 04:43:30;;;;;;;54.72;23.88;;;6.50;91.30;;;;;;7371638;19;20422;-76
2023/01/23 04:45:59;;;;;;;58.60;23.65;;;6.60;91.50;;;;;;7369074;19;20018;-76
2023/01/23 04:48:28;;;;;;;59.05;24.25;;;6.70;91.40;;;;;;7368669;19;20028;-76
2023/01/23 04:50:59;;;;;;;58.63;24.58;;;6.70;91.20;;;;;;7364838;19;20025;-76
2023/01/23 04:53:28;;;;;;;55.50;23.73;;;6.70;91.00;;;;;;7372972;19;20011;-76
2023/01/23 04:55:57;;;;;;;58.00;23.60;;;6.70;91.10;;;;;;7393235;19;20304;-76
2023/01/23 04:58:25;;;;;;;59.65;24.08;;;6.60;91.10;;;;;;7375685;19;20019;-76
2023/01/23 05:00:54;;;;;;;57.88;24.63;;;6.70;91.20;;;;;;7375745;19;20462;-76
2023/01/23 05:03:23;;;;;;;57.70;24.42;;;6.70;91.20;;;;;;7376742;19;20013;-76
2023/01/23 05:05:51;;;;;;;58.65;23.48;;;6.60;91.20;;;;;;7374235;19;20014;-76
2023/01/23 05:08:23;;;;;;;58.85;23.48;;;6.80;91.30;;;;;;7374781;19;20021;-76
2023/01/23 05:10:52;;;;;;;57.53;24.48;;;6.70;91.00;;;;;;7395265;19;20056;-76
2023/01/23 05:13:21;;;;;;;55.60;24.25;;;6.60;91.20;;;;;;7373893;19;20015;-76
2023/01/23 05:15:50;;;;;;;58.30;23.63;;;6.50;91.10;;;;;;7374828;19;20020;-76
2023/01/23 05:18:19;;;;;;;63.25;25.13;;;6.50;91.70;;;;;;7375501;19;20017;-76
2023/01/23 05:20:47;;;;;;;58.75;23.95;;;6.50;91.40;;;;;;7375933;19;20014;-76
2023/01/23 05:23:16;;;;;;;60.33;24.02;;;6.40;91.30;;;;;;7375327;19;20018;-76
2023/01/23 05:25:48;;;;;;;55.72;24.38;;;6.50;91.50;;;;;;7393706;19;20133;-76
2023/01/23 05:28:16;;;;;;;56.78;23.75;;;6.50;91.40;;;;;;7373090;19;20017;-75
2023/01/23 05:30:45;;;;;;;60.88;25.63;;;6.60;91.30;;;;;;7373423;19;20029;-76
2023/01/23 05:33:14;;;;;;;63.45;25.38;;;6.60;91.30;;;;;;7373752;19;20019;-76
2023/01/23 05:35:43;;;;;;;69.57;26.23;;;6.70;91.40;;;;;;7373757;19;20541;-76
2023/01/23 05:38:13;;;;;;;62.45;24.10;;;6.80;91.40;;;;;;7372971;19;20019;-76
2023/01/23 05:40:42;;;;;;;58.58;23.30;;;6.70;91.20;;;;;;7395392;19;20017;-76
2023/01/23 05:43:15;;;;;;;54.53;23.92;;;6.70;91.20;;;;;;7371848;19;20018;-77
2023/01/23 05:45:44;;;;;;;57.20;24.00;;;6.70;91.20;;;;;;7370280;19;20464;-77
2023/01/23 05:48:13;;;;;;;59.25;23.40;;;6.60;91.10;;;;;;7370830;19;20019;-76
2023/01/23 05:50:42;;;;;;;59.53;25.27;;;6.60;91.20;;;;;;7370994;19;20014;-76
2023/01/23 05:53:11;;;;;;;58.65;24.48;;;6.60;91.30;;;;;;7369841;19;20510;-76
2023/01/23 05:55:40;;;;;;;61.88;25.73;;;6.60;91.40;;;;;;7392712;19;20014;-77
2023/01/23 05:58:09;;;;;;;65.60;24.35;;;6.50;91.50;;;;;;7371102;19;20766;-76
2023/01/23 06:00:40;;;;;;;63.95;26.08;;;6.50;91.70;;;;;;7371572;19;20017;-76
2023/01/23 06:03:09;;;;;;;54.83;23.35;;;6.50;91.60;;;;;;7373131;19;20014;-76
2023/01/23 06:05:37;;;;;;;60.22;23.27;;;6.50;91.60;;;;;;7370778;19;20010;-76
2023/01/23 06:08:07;;;;;;;56.10;22.77;;;6.50;91.60;;;;;;7368464;19;20708;-76
2023/01/23 06:10:37;;;;;;;59.85;24.02;;;6.50;91.40;;;;;;7393027;19;20014;-76
2023/01/23 06:13:06;;;;;;;54.60;22.77;;;6.50;91.60;;;;;;7371196;19;20014;-76
2023/01/23 06:15:35;;;;;;;59.28;23.60;;;6.50;91.60;;;;;;7372189;19;20014;-76
2023/01/23 06:18:06;;;;;;;60.47;24.17;;;6.50;91.70;;;;;;7372631;19;20098;-76
2023/01/23 06:20:35;;;;;;;57.20;22.05;;;6.50;91.70;;;;;;7373317;19;20130;-76
2023/01/23 06:23:04;;;;;;;51.63;22.30;;;6.50;91.60;;;;;;7391000;19;20029;-75
2023/01/23 06:25:36;;;;;;;64.57;23.48;;;6.30;91.70;;;;;;7392771;19;20327;-76
2023/01/23 06:28:04;;;;;;;59.22;23.35;;;6.30;91.60;;;;;;7370762;19;20796;-76
2023/01/23 06:30:33;;;;;;;57.47;21.83;;;6.30;91.70;;;;;;7371570;19;20085;-76
2023/01/23 06:33:02;;;;;;;53.28;21.13;;;6.40;91.60;;;;;;7371262;19;20014;-76
2023/01/23 06:35:33;;;;;;;53.63;21.48;;;6.20;91.70;;;;;;7372181;19;20484;-76
2023/01/23 06:38:02;;;;;;;58.70;23.05;;;6.30;91.80;;;;;;7394517;19;20429;-76
2023/01/23 06:40:30;;;;;;;53.92;19.63;;;6.50;91.70;;;;;;7369560;19;20025;-76
2023/01/23 06:42:59;;;;;;;47.13;19.92;;;6.50;91.60;;;;;;7370734;19;20030;-76
2023/01/23 06:45:28;;;;;;;54.63;21.10;;;6.50;91.40;;;;;;7369913;19;20081;-76
2023/01/23 06:47:56;;;;;;;55.75;21.27;;;6.40;91.60;;;;;;7370508;19;20017;-76
2023/01/23 06:50:25;;;;;;;56.55;21.67;;;6.10;91.50;;;;;;7371674;19;20566;-76
2023/01/23 06:52:56;;;;;;;60.85;22.58;;;6.20;91.80;;;;;;7393595;19;20012;-76
2023/01/23 06:55:28;;;;;;;56.05;20.45;;;6.30;91.90;;;;;;7372022;19;20010;-76
2023/01/23 06:57:57;;;;;;;56.50;22.13;;;6.20;91.70;;;;;;7371044;19;20118;-76
2023/01/23 07:00:26;;;;;;;54.72;22.60;;;6.20;91.80;;;;;;7368551;19;20519;-76
2023/01/23 07:02:57;;;;;;;55.22;20.95;;;6.10;91.90;;;;;;7369881;19;20120;-77
2023/01/23 07:05:26;;;;;;;51.35;21.60;;;6.00;92.00;;;;;;7373341;19;20019;-76
2023/01/23 07:07:58;;;;;;;49.58;19.85;;;6.10;92.00;;;;;;7389947;19;20844;-76
2023/01/23 07:10:27;;;;;;;51.85;20.95;;;6.10;91.80;;;;;;7371323;19;20054;-76
2023/01/23 07:12:56;;;;;;;52.33;22.95;;;6.30;91.80;;;;;;7369950;19;20018;-77
2023/01/23 07:15:24;;;;;;;43.10;18.67;;;6.30;91.70;;;;;;7367712;19;20015;-76
2023/01/23 07:17:53;;;;;;;50.13;19.83;;;6.30;91.40;;;;;;7369025;19;20074;-76
2023/01/23 07:20:26;;;;;;;51.25;20.52;;;6.20;91.30;;;;;;7369952;19;20319;-76
2023/01/23 07:22:58;;;;;;;55.50;20.00;;;6.20;91.30;;;;;;7392888;19;20023;-76
2023/01/23 07:25:27;;;;;;;54.80;19.90;;;6.30;91.30;;;;;;7369401;19;20090;-77
2023/01/23 07:27:56;;;;;;;47.20;19.83;;;6.40;91.30;;;;;;7369904;19;20090;-76
2023/01/23 07:30:25;;;;;;;47.10;20.27;;;6.40;91.30;;;;;;7370281;19;20018;-77
2023/01/23 07:32:54;;;;;;;61.30;21.60;;;6.50;91.30;;;;;;7371233;19;20041;-77
2023/01/23 07:35:23;;;;;;;51.95;22.02;;;6.50;91.40;;;;;;7370111;19;20022;-76
2023/01/23 07:37:52;;;;;;;57.13;19.70;;;6.60;91.50;;;;;;7388725;19;20483;-76
2023/01/23 07:40:23;;;;;;;51.55;21.13;;;6.60;91.40;;;;;;7369584;19;20022;-77
2023/01/23 07:42:52;;;;;;;56.95;20.25;;;6.70;91.30;;;;;;7369961;19;20018;-76
2023/01/23 07:45:21;;;;;;;51.63;20.52;;;6.70;91.10;;;;;;7370052;19;20038;-78
2023/01/23 07:47:49;;;;;;;58.25;22.17;;;6.70;91.10;;;;;;7371989;19;20105;-76
2023/01/23 07:50:19;;;;;;;55.10;21.60;;;6.50;91.00;;;;;;7367993;19;20081;-76
2023/01/23 07:52:48;;;;;;;58.17;21.35;;;6.50;91.20;;;;;;7387850;19;20022;-76
2023/01/23 07:55:17;;;;;;;62.00;22.23;;;6.50;91.20;;;;;;7368099;19;20018;-77
2023/01/23 07:57:52;;;;;;;73.60;26.52;;;6.60;91.30;;;;;;7367944;19;20050;-76
2023/01/23 08:00:21;;;;;;;54.50;20.17;;;6.70;91.20;;;;;;7368727;19;20089;-76
2023/01/23 08:02:50;;;;;;;54.38;22.38;;;6.70;91.00;;;;;;7366285;19;20029;-76
2023/01/23 08:05:18;;;;;;;56.97;22.48;;;6.60;91.50;;;;;;7366782;19;20018;-76
2023/01/23 08:07:47;;;;;;;57.33;21.98;;;6.60;91.70;;;;;;7389913;19;20032;-76
2023/01/23 08:10:16;;;;;;;775.22;49.03;;;6.70;92.30;;;;;;7367005;19;20026;-76
2023/01/23 08:12:47;;;;;;;57.00;23.65;;;6.60;93.00;;;;;;7366767;19;20023;-76
2023/01/23 08:15:16;;;;;;;;;;;6.60;92.80;;;;;;7366372;19;20074;-77
2023/01/23 08:17:44;;;;;;;56.70;20.20;;;6.60;92.60;;;;;;7366268;19;19927;-76
2023/01/23 08:20:14;;;;;;;55.45;21.48;;;6.50;92.90;;;;;;7369148;19;20014;-76
2023/01/23 08:22:43;;;;;;;52.65;21.98;;;6.60;92.20;;;;;;7389247;19;20006;-76
2023/01/23 08:25:12;;;;;;;53.75;19.45;;;6.70;91.90;;;;;;7368182;19;20078;-76
2023/01/23 08:27:44;;;;;;;58.83;22.33;;;6.60;91.50;;;;;;7375936;19;20136;-76
2023/01/23 08:30:17;;;;;;;64.88;20.45;;;6.60;91.70;;;;;;7374930;19;20121;-77
2023/01/23 08:32:46;;;;;;;54.03;22.63;;;6.60;91.40;;;;;;7375304;19;20014;-76
2023/01/23 08:35:14;;;;;;;59.65;22.02;;;6.70;91.40;;;;;;7373463;19;22020;-77
2023/01/23 08:37:43;;;;;;;60.08;22.48;;;6.70;92.10;;;;;;7392961;19;20053;-77
2023/01/23 08:40:13;;;;;;;819.80;61.30;;;6.70;92.20;;;;;;7372997;19;20014;-77
2023/01/23 08:42:42;;;;;;;59.72;24.40;;;6.80;92.20;;;;;;7374371;19;20018;-78
2023/01/23 08:45:12;;;;;;;74.78;24.95;;;6.80;92.60;;;;;;7375002;19;20120;-76
2023/01/23 08:47:43;;;;;;;593.17;40.08;;;6.80;92.80;;;;;;7372143;19;20149;-77
2023/01/23 08:50:12;;;;;;;;;;;6.80;93.10;;;;;;7375715;19;20086;-77
2023/01/23 08:52:41;;;;;;;55.72;21.90;;;6.70;92.90;;;;;;7395897;19;20315;-78
2023/01/23 08:55:12;;;;;;;49.08;20.52;;;6.80;92.60;;;;;;7373304;19;20474;-77
2023/01/23 08:57:40;;;;;;;71.72;22.27;;;6.90;91.90;;;;;;7374315;19;20013;-78
2023/01/23 09:00:12;;;;;;;60.45;23.23;;;6.80;91.10;;;;;;7375109;19;20130;-77
2023/01/23 09:02:43;;;;;;;55.15;22.70;;;6.80;91.20;;;;;;7372083;19;20014;-77
2023/01/23 09:05:11;;;;;;;;;;;6.90;91.60;;;;;;7375569;19;20029;-77
2023/01/23 09:07:40;;;;;;;60.72;22.88;;;6.90;90.70;;;;;;7392142;19;19927;-76
2023/01/23 09:10:11;;;;;;;74.80;23.33;;;6.90;90.90;;;;;;7373689;19;20021;-78
2023/01/23 09:12:41;;;;;;;59.38;23.38;;;7.00;90.90;;;;;;7372849;19;20026;-77
2023/01/23 09:15:11;;;;;;;51.75;21.63;;;7.00;91.00;;;;;;7374162;19;20450;-77
2023/01/23 09:17:42;;;;;;;61.10;23.60;;;7.00;90.70;;;;;;7372145;19;20359;-77
2023/01/23 09:20:14;;;;;;;59.75;23.05;;;7.00;90.80;;;;;;7372966;19;20014;-77
2023/01/23 09:22:42;;;;;;;;;;;7.00;90.90;;;;;;7397598;19;20051;-77
2023/01/23 09:25:13;;;;;;;61.88;21.60;;;7.10;90.70;;;;;;7371944;19;19922;-78
2023/01/23 09:27:42;;;;;;;56.90;22.85;;;6.80;90.50;;;;;;7373649;19;20019;-78
2023/01/23 09:30:12;;;;;;;62.33;24.08;;;6.90;91.50;;;;;;7373363;19;20357;-77
2023/01/23 09:32:44;;;;;;;66.13;23.95;;;6.90;91.50;;;;;;7373607;19;20094;-77
2023/01/23 09:35:12;;;;;;;;;;;7.00;91.40;;;;;;7371771;19;20029;-77
2023/01/23 09:40:25;;;;;;;64.20;22.42;;;7.20;91.00;;;;;;7373634;19;20018;-76
2023/01/23 09:42:56;;;;;;;55.00;22.17;;;7.00;90.70;;;;;;7371761;19;20014;-78
2023/01/23 09:45:29;;;;;;;54.70;22.85;;;7.10;90.70;;;;;;7371506;19;20089;-76
2023/01/23 09:48:11;;;;;;;56.03;23.70;;;7.10;91.10;;;;;;7372809;19;20018;-76
2023/01/23 09:50:46;;;;;;;58.75;22.02;;;7.10;91.40;;;;;;7372739;19;20099;-76
2023/01/23 09:53:20;;;;;;;58.25;23.20;;;7.20;91.20;;;;;;7373946;19;20024;-77
2023/01/23 09:55:55;;;;;;;57.05;22.98;;;7.30;90.80;;;;;;7394218;19;20466;-77
2023/01/23 09:58:33;;;;;;;56.70;23.00;;;7.30;90.60;;;;;;7373385;19;20821;-77
2023/01/23 10:01:01;;;;;;;52.85;22.15;;;7.30;90.50;;;;;;7372680;19;20085;-76
2023/01/23 10:03:34;;;;;;;55.17;22.75;;;7.40;90.50;;;;;;7371771;19;20015;-77
2023/01/23 10:06:15;;;;;;;61.72;22.95;;;7.40;90.40;;;;;;7373341;19;20078;-76
2023/01/23 10:08:55;;;;;;;59.33;22.42;;;7.40;90.40;;;;;;7373844;19;20017;-77
2023/01/23 10:11:31;;;;;;;60.23;23.27;;;7.40;90.40;;;;;;7373707;19;20019;-77
2023/01/23 10:14:19;;;;;;;61.25;21.65;;;7.50;90.40;;;;;;7393571;19;20677;-77
2023/01/23 10:17:07;;;;;;;58.70;21.80;;;7.50;90.30;;;;;;7374026;19;20337;-77
2023/01/23 10:19:54;;;;;;;65.18;22.63;;;7.40;90.00;;;;;;7371856;19;20032;-76
2023/01/23 10:22:36;;;;;;;59.85;22.63;;;7.40;90.00;;;;;;7371546;19;20010;-76
2023/01/23 10:25:14;;;;;;;;;;;7.40;90.00;;;;;;7376685;19;20480;-77
2023/01/23 10:27:46;;;;;;;51.80;22.17;;;7.50;90.10;;;;;;7371879;19;19918;-76
2023/01/23 10:30:32;;;;;;;53.05;20.55;;;7.40;90.60;;;;;;7371939;19;20047;-76
2023/01/23 10:33:07;;;;;;;53.00;21.67;;;7.40;90.10;;;;;;7372087;19;20785;-76
2023/01/23 10:35:46;;;;;;;55.58;21.23;;;7.40;89.80;;;;;;7371711;19;20113;-76
2023/01/23 10:38:28;;;;;;;58.17;21.33;;;7.40;89.70;;;;;;7370177;19;20046;-76
2023/01/23 10:43:37;;;;;;;48.65;19.73;;;7.40;89.90;;;;;;7371140;19;19914;-76
2023/01/23 10:46:12;;;;;;;49.92;20.95;;;7.40;90.00;;;;;;7367665;19;20078;-76
2023/01/23 10:48:45;;;;;;;52.97;20.25;;;7.30;90.00;;;;;;7372715;19;20031;-76
2023/01/23 10:51:49;;;;;;;48.85;20.42;;;7.20;89.70;;;;;;7370973;19;20133;-76
2023/01/23 10:54:23;;;;;;;50.70;20.70;;;7.20;90.00;;;;;;7368053;19;20018;-77
2023/01/23 10:56:57;;;;;;;47.88;20.55;;;7.20;90.10;;;;;;7371328;19;20084;-77
2023/01/23 10:59:30;;;;;;;88.45;22.05;;;7.20;90.20;;;;;;7370732;19;20003;-77
2023/01/23 11:02:01;;;;;;;52.80;20.50;;;7.10;90.30;;;;;;7392338;19;20018;-77
2023/01/23 11:04:32;;;;;;;53.13;20.35;;;7.10;90.50;;;;;;7370304;19;20020;-77
2023/01/23 11:07:19;;;;;;;57.83;20.75;;;7.10;90.20;;;;;;7369882;19;20070;-77
2023/01/23 11:09:55;;;;;;;53.88;19.75;;;7.20;90.30;;;;;;7370557;19;20090;-77
2023/01/23 11:12:25;;;;;;;55.38;19.77;;;7.30;90.30;;;;;;7370669;19;20019;-77
2023/01/23 11:15:15;;;;;;;49.90;19.77;;;7.30;90.20;;;;;;7370345;19;20034;-78
2023/01/23 11:17:44;;;;;;;50.15;19.52;;;7.30;90.00;;;;;;7370180;19;20014;-77
2023/01/23 11:20:23;;;;;;;53.95;19.95;;;7.30;90.20;;;;;;7368259;19;20018;-76
2023/01/23 11:23:07;;;;;;;53.20;19.65;;;7.30;90.20;;;;;;7390261;19;20078;-77
2023/01/23 11:25:39;;;;;;;50.00;19.35;;;7.30;90.40;;;;;;7369684;19;20010;-77
2023/01/23 11:28:25;;;;;;;52.33;19.88;;;7.40;90.30;;;;;;7367714;19;20018;-76
2023/01/23 11:30:57;;;;;;;48.72;19.00;;;7.40;90.00;;;;;;7369159;19;20011;-77
2023/01/23 11:33:47;;;;;;;43.58;17.50;;;7.50;90.00;;;;;;7370666;19;20066;-77
2023/01/23 11:36:40;;;;;;;41.80;18.10;;;7.40;89.50;;;;;;7369822;19;20088;-77
2023/01/23 11:39:21;;;;;;;43.33;19.08;;;7.40;89.30;;;;;;7369037;19;20749;-77
2023/01/23 11:41:50;;;;;;;46.47;18.97;;;7.40;89.80;;;;;;7367930;19;20022;-77
2023/01/23 11:44:20;;;;;;;40.85;17.85;;;7.50;90.10;;;;;;7369970;19;20330;-77
2023/01/23 11:47:16;;;;;;;45.42;17.98;;;7.60;90.00;;;;;;7388986;19;20081;-76
2023/01/23 11:50:23;;;;;;;66.70;21.15;;;7.70;89.20;;;;;;7368871;19;20037;-76
2023/01/23 11:52:59;;;;;;;44.47;17.08;;;7.60;88.80;;;;;;7365935;19;20328;-77
2023/01/23 11:56:00;;;;;;;41.00;17.25;;;7.60;88.50;;;;;;7365368;19;20026;-77
2023/01/23 11:58:47;;;;;;;38.88;16.40;;;7.60;88.50;;;;;;7366132;19;20473;-76
2023/01/23 12:01:24;;;;;;;40.78;16.85;;;7.60;88.70;;;;;;7364902;19;20033;-77
2023/01/23 12:04:27;;;;;;;37.58;16.98;;;7.60;88.20;;;;;;7368211;19;20021;-78
2023/01/23 12:07:08;;;;;;;38.55;17.27;;;7.50;88.20;;;;;;7363724;19;20018;-78
2023/01/23 12:09:46;;;;;;;32.45;12.98;;;7.50;87.90;;;;;;7368056;19;20018;-77
2023/01/23 12:12:31;;;;;;;47.83;17.90;;;7.50;87.80;;;;;;7366778;19;20446;-77
2023/01/23 12:15:08;;;;;;;43.45;17.67;;;7.60;87.90;;;;;;7366212;19;20019;-77
2023/01/23 12:17:43;;;;;;;40.85;15.02;;;7.60;88.20;;;;;;7367115;19;20011;-77
2023/01/23 12:20:31;;;;;;;36.80;14.48;;;7.60;88.10;;;;;;7366811;19;20063;-78
2023/01/23 12:23:18;;;;;;;40.72;15.10;;;7.60;87.60;;;;;;7388737;19;20118;-77
2023/01/23 12:25:53;;;;;;;36.35;13.90;;;7.40;88.00;;;;;;7365049;19;20027;-78
2023/01/23 12:28:43;;;;;;;31.80;13.07;;;7.40;87.90;;;;;;7365295;19;20016;-78
2023/01/23 12:31:26;;;;;;;27.30;11.30;;;7.50;87.50;;;;;;7366230;19;20026;-75
2023/01/23 12:34:34;;;;;;;25.52;11.95;;;7.40;87.20;;;;;;7367638;19;20547;-76
2023/01/23 12:37:33;;;;;;;28.40;11.80;;;7.30;88.00;;;;;;7366237;19;20022;-75
2023/01/23 12:40:11;;;;;;;32.17;12.73;;;7.30;87.20;;;;;;7366869;19;20018;-75
2023/01/23 12:42:46;;;;;;;26.13;11.13;;;7.40;87.00;;;;;;7367765;19;20021;-76
2023/01/23 12:45:23;;;;;;;32.60;12.88;;;7.50;86.90;;;;;;7368671;19;20015;-76
2023/01/23 12:48:00;;;;;;;33.40;12.38;;;7.50;86.70;;;;;;7366144;19;20010;-75
2023/01/23 12:50:37;;;;;;;32.50;13.35;;;7.50;86.80;;;;;;7366731;19;20007;-75
2023/01/23 12:53:11;;;;;;;41.20;13.45;;;7.60;87.40;;;;;;7367370;19;20019;-76
2023/01/23 12:55:45;;;;;;;35.28;13.48;;;7.30;87.60;;;;;;7389136;19;20034;-76
2023/01/23 12:58:18;;;;;;;32.33;13.15;;;7.30;86.90;;;;;;7366106;19;20082;-75
2023/01/23 13:01:00;;;;;;;30.73;13.15;;;7.40;86.90;;;;;;7367773;19;20033;-77
2023/01/23 13:03:52;;;;;;;29.80;12.93;;;7.40;86.80;;;;;;7374087;19;20011;-79
2023/01/23 13:06:43;;;;;;;30.75;13.10;;;7.50;86.60;;;;;;7372734;19;20023;-76
2023/01/23 13:09:19;;;;;;;35.05;13.90;;;7.50;87.20;;;;;;7365646;19;20114;-76
2023/01/23 13:11:58;;;;;;;34.35;13.48;;;7.50;86.90;;;;;;7364449;19;20612;-76
2023/01/23 13:14:44;;;;;;;33.55;13.55;;;7.50;87.90;;;;;;7371138;19;20014;-76
2023/01/23 13:17:44;;;;;;;33.47;13.10;;;7.30;86.70;;;;;;7371660;19;20014;-75
2023/01/23 13:23:29;;;;;;;33.85;13.88;;;7.20;87.60;;;;;;7373449;19;20799;-75
2023/01/23 13:26:28;;;;;;;46.05;15.00;;;7.30;87.70;;;;;;7395637;19;20014;-75